createdAt,value
2023-07-18T00:04:31.387Z,1021.315
2023-07-18T00:09:31.272Z,1021.336
2023-07-18T00:14:32.792Z,1021.295
2023-07-18T00:19:30.966Z,1021.27
2023-07-18T00:24:31.485Z,1021.265
2023-07-18T00:29:30.576Z,1021.275
2023-07-18T00:34:30.785Z,1021.249
2023-07-18T00:39:31.409Z,1021.293
2023-07-18T00:44:30.697Z,1021.253
2023-07-18T00:49:30.881Z,1021.25
2023-07-18T00:54:31.805Z,1021.218
2023-07-18T00:59:31.757Z,1021.156
2023-07-18T01:04:30.579Z,1021.188
2023-07-18T01:09:30.831Z,1021.179
2023-07-18T01:14:31.613Z,1021.198
2023-07-18T01:19:30.830Z,1021.222
2023-07-18T01:24:30.592Z,1021.211
2023-07-18T01:29:34.154Z,1021.21
2023-07-18T01:34:30.496Z,1021.18
2023-07-18T01:39:30.853Z,1021.078
2023-07-18T01:44:33.531Z,1021.045
2023-07-18T01:49:33.660Z,1020.981
2023-07-18T01:54:34.033Z,1020.986
2023-07-18T01:59:30.706Z,1020.994
2023-07-18T02:04:30.932Z,1020.95
2023-07-18T02:09:30.924Z,1020.906
2023-07-18T02:14:30.909Z,1020.909
2023-07-18T02:19:30.682Z,1020.847
2023-07-18T02:24:30.612Z,1020.791
2023-07-18T02:29:30.465Z,1020.812
2023-07-18T02:34:30.584Z,1020.809
2023-07-18T02:39:31.536Z,1020.791
2023-07-18T02:44:30.858Z,1020.711
2023-07-18T02:49:32.060Z,1020.72
2023-07-18T02:54:30.632Z,1020.685
2023-07-18T02:59:30.888Z,1020.623
2023-07-18T03:04:31.994Z,1020.618
2023-07-18T03:09:34.733Z,1020.63
2023-07-18T03:14:30.692Z,1020.64
2023-07-18T03:19:32.898Z,1020.658
2023-07-18T03:24:31.518Z,1020.685
2023-07-18T03:29:30.562Z,1020.656
2023-07-18T03:34:30.520Z,1020.657
2023-07-18T03:39:33.716Z,1020.664
2023-07-18T03:44:33.082Z,1020.678
2023-07-18T03:49:32.171Z,1020.645
2023-07-18T03:54:30.792Z,1020.628
2023-07-18T03:59:31.810Z,1020.635
2023-07-18T04:04:38.366Z,1020.63
2023-07-18T04:09:30.827Z,1020.656
2023-07-18T04:14:30.551Z,1020.628
2023-07-18T04:19:31.605Z,1020.683
2023-07-18T04:24:30.664Z,1020.742
2023-07-18T04:29:30.763Z,1020.722
2023-07-18T04:34:30.598Z,1020.715
2023-07-18T04:39:31.581Z,1020.722
2023-07-18T04:44:31.545Z,1020.729
2023-07-18T04:49:30.758Z,1020.69
2023-07-18T04:54:30.747Z,1020.615
2023-07-18T04:59:33.605Z,1020.542
2023-07-18T05:04:30.818Z,1020.518
2023-07-18T05:09:30.654Z,1020.501
2023-07-18T05:14:35.862Z,1020.441
2023-07-18T05:19:33.470Z,1020.445
2023-07-18T05:24:34.812Z,1020.384
2023-07-18T05:29:30.613Z,1020.423
2023-07-18T05:34:30.712Z,1020.41
2023-07-18T05:39:36.216Z,1020.432
2023-07-18T05:44:31.762Z,1020.479
2023-07-18T05:49:30.649Z,1020.48
2023-07-18T05:54:37.084Z,1020.462
2023-07-18T05:59:31.660Z,1020.491
2023-07-18T06:04:30.656Z,1020.528
2023-07-18T06:09:30.611Z,1020.517
2023-07-18T06:14:32.453Z,1020.517
2023-07-18T06:19:30.848Z,1020.544
2023-07-18T06:24:30.706Z,1020.572
2023-07-18T06:29:30.752Z,1020.563
2023-07-18T06:34:31.450Z,1020.608
2023-07-18T06:39:30.888Z,1020.578
2023-07-18T06:44:32.400Z,1020.632
2023-07-18T06:49:30.646Z,1020.608
2023-07-18T06:54:32.061Z,1020.575
2023-07-18T06:59:31.190Z,1020.549
2023-07-18T07:04:31.173Z,1020.561
2023-07-18T07:09:30.584Z,1020.541
2023-07-18T07:14:30.980Z,1020.591
2023-07-18T07:19:30.705Z,1020.581
2023-07-18T07:24:31.675Z,1020.587
2023-07-18T07:29:31.303Z,1020.564
2023-07-18T07:34:31.299Z,1020.587
2023-07-18T07:39:33.297Z,1020.524
2023-07-18T07:44:35.708Z,1020.506
2023-07-18T07:49:37.800Z,1020.432
2023-07-18T07:54:30.835Z,1020.413
2023-07-18T07:59:30.612Z,1020.377
2023-07-18T08:04:32.160Z,1020.294
2023-07-18T08:09:30.520Z,1020.318
2023-07-18T08:14:30.676Z,1020.252
2023-07-18T08:19:33.188Z,1020.229
2023-07-18T08:24:32.055Z,1020.217
2023-07-18T08:29:32.217Z,1020.165
2023-07-18T08:34:30.813Z,1020.115
2023-07-18T08:39:30.557Z,1020.141
2023-07-18T08:44:32.185Z,1020.181
2023-07-18T08:49:36.576Z,1020.235
2023-07-18T08:54:38.118Z,1020.19
2023-07-18T08:59:30.952Z,1020.174
2023-07-18T09:04:31.822Z,1020.158
2023-07-18T09:09:31.131Z,1020.079
2023-07-18T09:14:32.047Z,1020.124
2023-07-18T09:19:49.655Z,1020.004
2023-07-18T09:24:36.692Z,1020.016
2023-07-18T09:29:30.661Z,1019.886
2023-07-18T09:34:34.375Z,1019.914
2023-07-18T09:39:31.498Z,1019.923
2023-07-18T09:44:34.397Z,1019.838
2023-07-18T09:49:33.773Z,1019.841
2023-07-18T09:54:35.223Z,1019.773
2023-07-18T09:59:31.345Z,1019.846
2023-07-18T10:04:30.795Z,1019.86
2023-07-18T10:09:32.918Z,1019.779
2023-07-18T10:14:48.608Z,1019.782
2023-07-18T10:19:30.761Z,1019.772
2023-07-18T10:24:34.870Z,1019.717
2023-07-18T10:29:34.646Z,1019.653
2023-07-18T10:34:30.651Z,1019.657
2023-07-18T10:39:42.580Z,1019.622
2023-07-18T10:44:34.701Z,1019.568
2023-07-18T10:49:33.837Z,1019.478
2023-07-18T10:54:30.508Z,1019.473
2023-07-18T10:59:42.046Z,1019.399
2023-07-18T11:04:33.330Z,1019.324
2023-07-18T11:09:33.016Z,1019.268
2023-07-18T11:14:33.497Z,1019.191
2023-07-18T11:19:30.567Z,1019.209
2023-07-18T11:24:34.055Z,1019.214
2023-07-18T11:29:34.558Z,1019.186
2023-07-18T11:34:31.626Z,1019.16
2023-07-18T11:39:32.758Z,1019.13
2023-07-18T11:44:33.944Z,1019.124
2023-07-18T11:49:40.876Z,1019.102
2023-07-18T11:54:31.731Z,1019.181
2023-07-18T11:59:30.668Z,1019.113
2023-07-18T12:04:32.803Z,1019.07
2023-07-18T12:09:30.646Z,1019.07
2023-07-18T12:14:30.653Z,1019.039
2023-07-18T12:19:30.573Z,1019.031
2023-07-18T12:24:30.539Z,1018.999
2023-07-18T12:29:30.536Z,1018.962
2023-07-18T12:34:30.500Z,1018.938
2023-07-18T12:39:31.005Z,1018.894
2023-07-18T12:44:40.584Z,1018.824
2023-07-18T12:54:34.129Z,1018.792
2023-07-18T12:59:30.558Z,1018.729
2023-07-18T13:04:30.630Z,1018.772
2023-07-18T13:09:30.621Z,1018.762
2023-07-18T13:14:31.979Z,1018.774
2023-07-18T13:19:30.657Z,1018.766
2023-07-18T13:24:32.140Z,1018.696
2023-07-18T13:29:30.804Z,1018.653
2023-07-18T13:34:30.680Z,1018.603
2023-07-18T13:39:30.480Z,1018.582
2023-07-18T13:44:30.744Z,1018.561
2023-07-18T13:54:39.912Z,1018.546
2023-07-18T13:59:30.968Z,1018.499
2023-07-18T14:04:32.977Z,1018.387
2023-07-18T14:09:32.461Z,1018.321
2023-07-18T14:14:30.576Z,1018.314
2023-07-18T14:19:32.175Z,1018.212
2023-07-18T14:24:30.667Z,1018.214
2023-07-18T14:29:30.513Z,1018.182
2023-07-18T14:34:33.543Z,1018.112
2023-07-18T14:39:30.802Z,1018.056
2023-07-18T14:44:30.572Z,1017.948
2023-07-18T14:49:35.565Z,1017.93
2023-07-18T14:54:30.477Z,1018.012
2023-07-18T14:59:41.696Z,1017.908
2023-07-18T15:04:30.706Z,1017.898
2023-07-18T15:09:30.695Z,1017.924
2023-07-18T15:14:33.409Z,1017.92
2023-07-18T15:19:30.552Z,1017.96
2023-07-18T15:24:30.854Z,1017.865
2023-07-18T15:29:30.670Z,1017.858
2023-07-18T15:34:33.844Z,1017.807
2023-07-18T15:39:30.694Z,1017.75
2023-07-18T15:44:30.787Z,1017.758
2023-07-18T15:49:31.355Z,1017.732
2023-07-18T15:54:30.679Z,1017.676
2023-07-18T15:59:30.896Z,1017.661
2023-07-18T16:04:35.654Z,1017.565
2023-07-18T16:09:32.345Z,1017.484
2023-07-18T16:14:30.877Z,1017.442
2023-07-18T16:19:30.616Z,1017.407
2023-07-18T16:24:30.546Z,1017.345
2023-07-18T16:29:31.001Z,1017.324
2023-07-18T16:34:42.037Z,1017.267
2023-07-18T16:39:30.631Z,1017.146
2023-07-18T16:44:30.676Z,1017.152
2023-07-18T16:49:30.704Z,1017.108
2023-07-18T16:54:31.893Z,1017.042
2023-07-18T16:59:33.528Z,1017.008
2023-07-18T17:04:30.989Z,1016.928
2023-07-18T17:09:30.649Z,1016.921
2023-07-18T17:14:30.670Z,1016.997
2023-07-18T17:19:33.104Z,1016.992
2023-07-18T17:24:35.518Z,1016.992
2023-07-18T17:29:35.168Z,1016.947
2023-07-18T17:34:30.613Z,1016.908
2023-07-18T17:39:38.513Z,1016.92
2023-07-18T17:44:30.746Z,1016.928
2023-07-18T17:49:30.571Z,1016.911
2023-07-18T17:54:30.580Z,1016.894
2023-07-18T18:02:47.952Z,1016.87
2023-07-18T18:04:37.698Z,1016.782
2023-07-18T18:09:30.489Z,1016.613
2023-07-18T18:14:30.716Z,1016.585
2023-07-18T18:19:30.733Z,1016.614
2023-07-18T18:24:30.508Z,1016.715
2023-07-18T18:29:31.697Z,1016.796
2023-07-18T18:34:33.862Z,1016.741
2023-07-18T18:39:32.450Z,1016.707
2023-07-18T18:44:30.576Z,1016.635
2023-07-18T18:49:31.346Z,1016.558
2023-07-18T18:54:32.516Z,1016.572
2023-07-18T18:59:30.552Z,1016.453
2023-07-18T19:04:31.824Z,1016.323
2023-07-18T19:09:30.833Z,1016.272
2023-07-18T19:14:30.582Z,1016.267
2023-07-18T19:19:30.854Z,1016.204
2023-07-18T19:24:32.942Z,1016.223
2023-07-18T19:29:33.742Z,1016.323
2023-07-18T19:34:30.593Z,1016.328
2023-07-18T19:39:31.834Z,1016.517
2023-07-18T19:44:30.598Z,1016.447
2023-07-18T19:49:38.267Z,1016.455
2023-07-18T19:54:44.549Z,1016.275
2023-07-18T19:59:31.265Z,1016.234
2023-07-18T20:04:30.642Z,1016.305
2023-07-18T20:09:30.534Z,1016.271
2023-07-18T20:14:30.655Z,1016.138
2023-07-18T20:19:31.394Z,1016.058
2023-07-18T20:24:30.615Z,1015.983
2023-07-18T20:29:32.071Z,1015.98
2023-07-18T20:34:33.353Z,1016.041
2023-07-18T20:39:32.433Z,1015.995
2023-07-18T20:44:30.776Z,1015.973
2023-07-18T20:49:33.752Z,1015.957
2023-07-18T20:54:35.996Z,1015.923
2023-07-18T20:59:30.512Z,1015.858
2023-07-18T21:04:30.809Z,1015.856
2023-07-18T21:09:32.706Z,1015.818
2023-07-18T21:14:30.423Z,1015.739
2023-07-18T21:19:30.643Z,1015.663
2023-07-18T21:24:31.820Z,1015.692
2023-07-18T21:29:30.711Z,1015.763
2023-07-18T21:34:31.544Z,1015.78
2023-07-18T21:39:30.501Z,1015.846
2023-07-18T21:44:30.625Z,1015.783
2023-07-18T21:49:30.632Z,1015.735
2023-07-18T21:54:30.527Z,1015.707
2023-07-18T21:59:30.504Z,1015.691
2023-07-18T22:04:30.566Z,1015.787
2023-07-18T22:09:30.520Z,1015.787
2023-07-18T22:14:30.492Z,1015.843
2023-07-18T22:19:30.712Z,1015.833
2023-07-18T22:24:32.581Z,1015.872
2023-07-18T22:29:30.548Z,1015.812
2023-07-18T22:34:34.754Z,1015.81
2023-07-18T22:39:36.228Z,1015.787
2023-07-18T22:44:30.582Z,1015.731
2023-07-18T22:49:32.354Z,1015.658
2023-07-18T22:54:30.632Z,1015.589
2023-07-18T22:59:30.412Z,1015.604
2023-07-18T23:04:32.732Z,1015.542
2023-07-18T23:09:33.069Z,1015.581
2023-07-18T23:14:30.492Z,1015.554
2023-07-18T23:19:30.497Z,1015.525
2023-07-18T23:24:31.814Z,1015.437
2023-07-18T23:29:38.053Z,1015.282
2023-07-18T23:34:31.414Z,1015.285
2023-07-18T23:39:30.657Z,1015.24
2023-07-18T23:44:32.749Z,1015.177
2023-07-18T23:49:30.533Z,1015.156
2023-07-18T23:54:30.440Z,1015.158
2023-07-18T23:59:30.622Z,1015.203
